Terminal Aerodrome Forecast
Issued by NWS Sterling, VA

Current Version | Previous Version | Text Only | Print | Product List | Glossary Off
Versions: 1 2 3 4 5 6 7 8 9 10 11 12 13 14 15 16 17 18 19 20 21

000
FTUS41 KLWX 241728
TAFIAD
TAF
KIAD 241728Z 2418/2524 19010G20KT P6SM SCT040 SCT200
     FM250000 17008KT P6SM SCT025
     FM250400 17008KT P6SM BKN015
     FM251500 17012KT P6SM VCSH BKN015
     FM251800 19013G21KT 1 1/2SM -SHRA VCTS OVC030CB
     FM252100 29017G26KT P6SM OVC045
     FM252300 29018G28KT P6SM SCT250=

USA.gov is the U.S. government's official web portal to all federal, state and local government web resources and services.